Time;durP1;ratioP1;P1;durP2;ratioP2;P2;SDS_P1;SDS_P2;PMS_P1;PMS_P2;Temp;Humidity;BMP_temperature;BMP_pressure;BME280_temperature;BME280_humidity;BME280_pressure;Samples;Min_cycle;Max_cycle;Signal;HPM_P1;HPM_P2
2022/09/29 00:01:47;;;;;;;;;;;22.50;46.70;;;;;;6109739;28;20154;-58
2022/09/29 00:04:49;;;;;;;0.22;0.10;;;22.20;46.70;;;;;;6111796;28;19930;-55
2022/09/29 00:07:51;;;;;;;0.10;0.10;;;22.50;46.70;;;;;;6113847;28;20126;-55
2022/09/29 00:10:53;;;;;;;;;;;22.20;46.60;;;;;;6116251;28;20054;-55
2022/09/29 00:13:55;;;;;;;0.30;0.10;;;22.60;46.80;;;;;;6113864;28;19973;-57
2022/09/29 00:16:56;;;;;;;0.10;0.10;;;22.30;46.60;;;;;;6114237;28;20077;-56
2022/09/29 00:19:58;;;;;;;0.10;0.10;;;22.50;46.70;;;;;;6117404;28;20057;-54
2022/09/29 00:22:59;;;;;;;0.10;0.10;;;23.00;46.90;;;;;;6115699;28;21209;-57
2022/09/29 00:26:04;;;;;;;0.10;0.10;;;22.50;46.60;;;;;;6114984;28;20043;-56
2022/09/29 00:29:06;;;;;;;0.10;0.10;;;22.20;46.40;;;;;;6110444;28;20113;-58
2022/09/29 00:32:07;;;;;;;0.28;0.20;;;22.10;46.30;;;;;;6110953;28;20042;-57
2022/09/29 00:35:09;;;;;;;0.30;0.20;;;22.40;46.50;;;;;;6115005;28;20057;-57
2022/09/29 00:38:11;;;;;;;0.20;0.10;;;22.10;46.40;;;;;;6113622;28;20912;-58
2022/09/29 00:41:16;;;;;;;;;;;22.80;46.70;;;;;;6115280;28;20157;-55
2022/09/29 00:44:46;;;;;;;0.38;0.10;;;22.40;46.40;;;;;;6097061;28;19930;-57
2022/09/29 00:48:00;;;;;;;0.10;0.10;;;22.70;46.60;;;;;;6117099;28;20046;-58
2022/09/29 00:51:02;;;;;;;0.10;0.10;;;22.60;46.60;;;;;;6111939;28;20121;-57
2022/09/29 00:54:04;;;;;;;0.20;0.20;;;22.50;46.60;;;;;;6107008;28;20046;-57
2022/09/29 00:57:09;;;;;;;0.10;0.10;;;22.50;46.60;;;;;;6113478;28;20082;-55
2022/09/29 01:00:12;;;;;;;0.20;0.13;;;22.10;46.30;;;;;;6114747;28;20131;-57
2022/09/29 01:03:18;;;;;;;0.20;0.20;;;22.40;46.50;;;;;;6116116;28;20978;-58
2022/09/29 01:06:25;;;;;;;0.40;0.20;;;22.20;46.40;;;;;;6098996;28;20046;-57
2022/09/29 01:09:30;;;;;;;0.17;0.10;;;22.40;46.50;;;;;;6116564;28;20970;-56
2022/09/29 01:12:32;;;;;;;0.20;0.10;;;22.50;46.50;;;;;;6115659;28;20169;-57
2022/09/29 01:15:34;;;;;;;0.28;0.20;;;22.50;46.50;;;;;;6118621;28;20231;-58
2022/09/29 01:18:39;;;;;;;0.10;0.10;;;22.30;46.40;;;;;;6119054;28;20161;-58
2022/09/29 01:21:53;;;;;;;0.40;0.10;;;22.50;46.60;;;;;;6118399;28;20045;-58
2022/09/29 01:24:57;;;;;;;0.10;0.10;;;22.40;46.30;;;;;;6117064;28;20237;-57
2022/09/29 01:28:22;;;;;;;0.30;0.30;;;22.10;46.20;;;;;;6110872;28;20173;-55
2022/09/29 01:31:31;;;;;;;0.20;0.20;;;22.20;46.20;;;;;;6113923;28;20050;-57
2022/09/29 01:34:40;;;;;;;0.20;0.13;;;22.20;46.30;;;;;;6116425;28;20051;-55
2022/09/29 01:37:55;;;;;;;0.25;0.17;;;22.50;46.50;;;;;;6117913;28;20051;-57
2022/09/29 01:41:05;;;;;;;0.10;0.10;;;22.20;46.30;;;;;;6118707;28;20187;-57
2022/09/29 01:44:16;;;;;;;0.32;0.20;;;22.20;46.30;;;;;;6116101;28;20102;-56
2022/09/29 01:47:22;;;;;;;0.20;0.20;;;22.00;46.20;;;;;;6117687;28;20064;-58
2022/09/29 01:50:28;;;;;;;0.15;0.10;;;22.50;46.60;;;;;;6116742;28;20082;-56
2022/09/29 01:53:40;;;;;;;0.13;0.10;;;22.70;46.70;;;;;;6117410;28;20165;-57
2022/09/29 01:56:47;;;;;;;0.03;0.03;;;23.10;46.90;;;;;;6117414;28;20128;-57
2022/09/29 01:59:53;;;;;;;0.15;0.15;;;22.40;47.20;;;;;;6109801;28;20149;-57
2022/09/29 02:03:00;;;;;;;0.15;0.10;;;22.50;46.60;;;;;;6116128;28;20054;-55
2022/09/29 02:06:08;;;;;;;0.45;0.10;;;22.40;46.60;;;;;;6116962;28;20071;-58
2022/09/29 02:09:16;;;;;;;0.10;0.10;;;22.40;46.60;;;;;;6120678;28;20039;-58
2022/09/29 02:12:24;;;;;;;0.20;0.10;;;22.40;46.70;;;;;;6119373;28;20799;-58
2022/09/29 02:15:32;;;;;;;0.25;0.20;;;22.30;46.60;;;;;;6115879;28;20153;-57
2022/09/29 02:18:41;;;;;;;0.20;0.10;;;22.30;46.60;;;;;;6121856;28;20048;-58
2022/09/29 02:21:43;;;;;;;0.40;0.20;;;22.10;46.50;;;;;;6117202;28;20145;-56
2022/09/29 02:24:45;;;;;;;0.40;0.20;;;22.10;46.60;;;;;;6118992;28;20924;-57
2022/09/29 02:27:49;;;;;;;0.10;0.10;;;22.20;46.70;;;;;;6120305;28;20043;-58
2022/09/29 02:30:51;;;;;;;0.32;0.30;;;22.30;46.80;;;;;;6120479;28;20082;-57
2022/09/29 02:33:53;;;;;;;0.20;0.20;;;22.30;46.80;;;;;;6114432;28;20181;-58
2022/09/29 02:37:02;;;;;;;0.20;0.20;;;22.00;46.70;;;;;;6113536;28;20047;-58
2022/09/29 02:40:15;;;;;;;0.30;0.20;;;22.00;46.60;;;;;;6114814;28;20850;-56
2022/09/29 02:43:32;;;;;;;0.60;0.40;;;22.30;46.80;;;;;;6119492;28;20964;-57
2022/09/29 02:46:49;;;;;;;0.10;0.10;;;21.90;46.60;;;;;;6120566;28;20085;-58
2022/09/29 02:50:05;;;;;;;0.35;0.22;;;21.90;46.60;;;;;;6112688;28;20930;-55
2022/09/29 02:53:16;;;;;;;0.20;0.10;;;22.20;46.80;;;;;;6117740;28;20050;-55
2022/09/29 02:56:26;;;;;;;0.22;0.10;;;22.10;46.80;;;;;;6120237;28;20051;-58
2022/09/29 02:59:34;;;;;;;0.20;0.20;;;22.00;46.70;;;;;;6120110;28;20146;-58
2022/09/29 03:02:36;;;;;;;0.13;0.10;;;22.40;47.50;;;;;;6119894;28;20047;-58
2022/09/29 03:05:38;;;;;;;0.10;0.10;;;22.40;46.90;;;;;;6121095;28;20064;-58
2022/09/29 03:08:40;;;;;;;0.22;0.10;;;22.20;46.90;;;;;;6118569;28;20862;-59
2022/09/29 03:11:41;;;;;;;;;;;22.30;47.10;;;;;;6120006;28;20049;-57
2022/09/29 03:14:43;;;;;;;0.10;0.10;;;22.20;47.10;;;;;;6122717;28;20076;-58
2022/09/29 03:17:45;;;;;;;0.30;0.28;;;21.80;46.90;;;;;;6121518;28;20062;-60
2022/09/29 03:20:47;;;;;;;0.38;0.20;;;22.00;47.00;;;;;;6120880;28;20047;-59
2022/09/29 03:23:48;;;;;;;0.10;0.10;;;22.30;47.10;;;;;;6111256;28;22843;-59
2022/09/29 03:26:50;;;;;;;0.40;0.30;;;22.20;47.10;;;;;;6119021;28;20145;-59
2022/09/29 03:29:51;;;;;;;0.10;0.10;;;22.20;47.00;;;;;;6120329;28;20058;-58
2022/09/29 03:32:53;;;;;;;0.30;0.20;;;21.80;46.90;;;;;;6121278;28;20050;-58
2022/09/29 03:35:54;;;;;;;;;;;22.00;47.00;;;;;;6121773;28;20149;-58
2022/09/29 03:38:56;;;;;;;0.10;0.10;;;22.20;47.20;;;;;;6122678;28;19929;-55
2022/09/29 03:41:57;;;;;;;;;;;22.30;47.20;;;;;;6115161;28;21588;-54
2022/09/29 03:44:59;;;;;;;0.40;0.20;;;21.80;47.10;;;;;;6118831;28;20047;-56
2022/09/29 03:48:00;;;;;;;0.10;0.10;;;22.20;47.20;;;;;;6120676;28;20181;-57
2022/09/29 03:51:02;;;;;;;0.10;0.10;;;22.20;47.20;;;;;;6118853;28;20039;-56
2022/09/29 03:54:10;;;;;;;0.10;0.10;;;22.20;47.20;;;;;;6117355;28;20054;-59
2022/09/29 03:57:12;;;;;;;0.20;0.20;;;22.20;47.20;;;;;;6113689;28;20835;-54
2022/09/29 04:00:14;;;;;;;0.28;0.10;;;22.20;47.20;;;;;;6119432;28;20149;-59
2022/09/29 04:03:16;;;;;;;0.17;0.17;;;21.90;47.00;;;;;;6113636;28;20053;-58
2022/09/29 04:06:18;;;;;;;;;;;21.60;46.90;;;;;;6121950;28;20042;-58
2022/09/29 04:09:19;;;;;;;0.40;0.20;;;22.20;47.30;;;;;;6122210;28;19926;-58
2022/09/29 04:12:21;;;;;;;0.43;0.20;;;21.90;47.20;;;;;;6112146;28;20059;-58
2022/09/29 04:15:22;;;;;;;;;;;21.90;47.10;;;;;;6115410;28;20108;-58
2022/09/29 04:18:23;;;;;;;0.20;0.10;;;21.70;47.10;;;;;;6115948;28;19933;-58
2022/09/29 04:21:26;;;;;;;0.17;0.17;;;21.70;47.00;;;;;;6117628;28;20080;-56
2022/09/29 04:24:27;;;;;;;0.10;0.10;;;21.90;47.10;;;;;;6111981;28;20043;-58
2022/09/29 04:27:29;;;;;;;0.10;0.10;;;22.10;47.20;;;;;;6109399;28;20070;-56
2022/09/29 04:30:30;;;;;;;;;;;22.30;47.30;;;;;;6110431;28;20082;-57
2022/09/29 04:33:31;;;;;;;0.10;0.10;;;21.60;47.10;;;;;;6111469;28;19996;-59
2022/09/29 04:36:33;;;;;;;0.10;0.10;;;22.10;47.30;;;;;;6115437;28;21125;-58
2022/09/29 04:39:35;;;;;;;0.38;0.10;;;21.80;47.10;;;;;;6111129;28;20059;-58
2022/09/29 04:42:36;;;;;;;;;;;21.90;47.10;;;;;;6115843;28;20907;-59
2022/09/29 04:45:38;;;;;;;0.05;0.00;;;21.80;47.30;;;;;;6113732;28;19937;-58
2022/09/29 04:48:40;;;;;;;0.10;0.10;;;21.90;47.20;;;;;;6100257;28;20082;-58
2022/09/29 04:51:42;;;;;;;0.30;0.17;;;21.60;47.00;;;;;;6103689;28;20953;-59
2022/09/29 04:54:43;;;;;;;0.90;0.28;;;22.20;47.30;;;;;;6112920;28;20079;-57
2022/09/29 04:57:46;;;;;;;0.20;0.20;;;22.10;47.20;;;;;;6109683;28;20807;-59
2022/09/29 05:00:47;;;;;;;0.22;0.10;;;22.20;47.30;;;;;;6110993;28;20050;-57
2022/09/29 05:03:49;;;;;;;0.25;0.20;;;22.10;47.20;;;;;;6110108;28;20046;-56
2022/09/29 05:06:51;;;;;;;;;;;22.00;47.10;;;;;;6108138;28;20027;-57
2022/09/29 05:09:53;;;;;;;0.15;0.15;;;21.90;47.30;;;;;;6112282;28;19929;-58
2022/09/29 05:12:54;;;;;;;0.10;0.10;;;22.10;47.20;;;;;;6109522;28;20059;-58
2022/09/29 05:15:56;;;;;;;;;;;21.80;47.10;;;;;;6111342;28;20158;-57
2022/09/29 05:18:58;;;;;;;0.40;0.20;;;21.70;47.20;;;;;;6110052;28;19937;-58
2022/09/29 05:22:01;;;;;;;0.20;0.20;;;21.90;47.20;;;;;;6103395;28;20051;-56
2022/09/29 05:25:10;;;;;;;0.93;0.17;;;22.10;47.30;;;;;;6102529;28;20089;-57
2022/09/29 05:28:13;;;;;;;1.58;0.20;;;21.70;47.00;;;;;;6100307;28;20097;-55
2022/09/29 05:31:16;;;;;;;0.10;0.10;;;21.90;47.20;;;;;;6102280;28;20190;-59
2022/09/29 05:34:18;;;;;;;0.13;0.13;;;21.80;47.10;;;;;;6107062;28;20081;-56
2022/09/29 05:37:20;;;;;;;0.10;0.10;;;21.80;47.20;;;;;;6098532;28;20979;-59
2022/09/29 05:40:23;;;;;;;0.20;0.15;;;22.10;47.20;;;;;;6091183;28;20158;-58
2022/09/29 05:43:24;;;;;;;1.08;0.35;;;21.70;47.00;;;;;;6095909;28;20053;-58
2022/09/29 05:46:26;;;;;;;0.20;0.10;;;22.10;47.90;;;;;;6095591;28;20031;-58
2022/09/29 05:49:29;;;;;;;0.20;0.20;;;22.30;47.50;;;;;;6097766;28;20182;-58
2022/09/29 05:52:31;;;;;;;0.10;0.10;;;22.40;47.40;;;;;;6098331;28;20074;-58
2022/09/29 05:55:37;;;;;;;0.20;0.20;;;21.70;47.10;;;;;;6100333;28;20058;-57
2022/09/29 05:58:39;;;;;;;0.17;0.10;;;22.20;47.30;;;;;;6101520;28;20059;-56
2022/09/29 06:01:41;;;;;;;0.20;0.10;;;21.80;47.20;;;;;;6099791;28;21040;-57
2022/09/29 06:04:42;;;;;;;0.30;0.22;;;21.80;47.20;;;;;;6097376;28;20047;-59
2022/09/29 06:07:44;;;;;;;;;;;21.80;47.30;;;;;;6091525;28;20858;-59
2022/09/29 06:10:46;;;;;;;0.15;0.10;;;21.80;47.30;;;;;;6091135;28;20769;-57
2022/09/29 06:13:50;;;;;;;0.40;0.30;;;21.80;47.30;;;;;;6082902;28;20061;-58
2022/09/29 06:16:52;;;;;;;0.15;0.10;;;21.70;47.10;;;;;;6065733;28;21165;-56
2022/09/29 06:19:54;;;;;;;0.28;0.20;;;21.90;47.30;;;;;;6063653;28;20054;-54
2022/09/29 06:22:55;;;;;;;;;;;22.20;47.50;;;;;;6062124;28;20128;-57
2022/09/29 06:25:58;;;;;;;0.10;0.10;;;22.30;47.70;;;;;;6060314;28;20004;-58
2022/09/29 06:28:59;;;;;;;0.20;0.20;;;21.60;47.20;;;;;;6043019;28;20157;-57
2022/09/29 06:32:01;;;;;;;;;;;22.10;47.50;;;;;;6051337;28;20042;-55
2022/09/29 06:38:19;;;;;;;2.38;0.32;;;22.20;47.60;;;;;;6039598;28;21446;-58
2022/09/29 06:41:21;;;;;;;0.30;0.20;;;21.70;47.30;;;;;;6056360;28;20042;-58
2022/09/29 06:44:23;;;;;;;;;;;22.20;47.80;;;;;;6039239;28;20051;-54
2022/09/29 06:47:25;;;;;;;1.08;0.10;;;22.20;47.90;;;;;;6026982;28;19930;-56
2022/09/29 06:50:26;;;;;;;;;;;21.90;47.60;;;;;;6035338;28;22152;-59
2022/09/29 06:53:28;;;;;;;0.57;0.10;;;22.70;48.10;;;;;;6021661;28;19930;-54
2022/09/29 06:56:40;;;;;;;0.20;0.20;;;22.10;47.60;;;;;;6020544;28;20054;-55
2022/09/29 06:59:41;;;;;;;0.20;0.10;;;21.80;47.60;;;;;;5977422;28;20108;-58
2022/09/29 07:02:45;;;;;;;0.40;0.20;;;21.80;47.70;;;;;;5990141;28;21996;-59
2022/09/29 07:05:46;;;;;;;0.57;0.30;;;21.90;47.70;;;;;;5999319;28;20047;-57
2022/09/29 07:09:14;;;;;;;0.65;0.22;;;22.30;48.00;;;;;;5975577;28;20054;-59
2022/09/29 07:12:16;;;;;;;0.20;0.20;;;22.40;48.10;;;;;;5967874;28;20169;-55
2022/09/29 07:15:18;;;;;;;0.55;0.20;;;22.30;48.30;;;;;;5963875;28;21239;-56
2022/09/29 07:18:19;;;;;;;0.35;0.20;;;22.00;48.00;;;;;;5961224;28;20047;-59
2022/09/29 07:21:21;;;;;;;0.45;0.20;;;22.40;48.20;;;;;;5930243;28;20181;-54
2022/09/29 07:24:25;;;;;;;0.20;0.20;;;22.00;47.90;;;;;;5923613;28;20047;-56
2022/09/29 07:27:33;;;;;;;0.25;0.20;;;22.10;48.00;;;;;;5906331;28;20478;-55
2022/09/29 07:30:36;;;;;;;1.38;0.20;;;22.40;48.10;;;;;;5896911;28;20046;-52
2022/09/29 07:33:42;;;;;;;1.83;0.28;;;22.50;48.20;;;;;;5893815;28;20615;-52
2022/09/29 07:36:44;;;;;;;1.08;0.15;;;22.30;48.10;;;;;;5901000;28;20046;-61
2022/09/29 07:39:45;;;;;;;0.20;0.20;;;22.40;48.20;;;;;;5930177;28;21402;-59
2022/09/29 07:42:47;;;;;;;0.20;0.20;;;22.40;48.30;;;;;;5922604;28;22945;-55
2022/09/29 07:45:50;;;;;;;2.05;0.30;;;22.20;48.30;;;;;;5894935;28;32871;-56
2022/09/29 07:48:52;;;;;;;0.30;0.20;;;22.10;48.30;;;;;;5884843;28;20173;-54
2022/09/29 07:51:53;;;;;;;2.58;0.88;;;22.30;48.30;;;;;;5920613;28;20053;-55
2022/09/29 07:54:55;;;;;;;;;;;22.60;48.30;;;;;;5911820;28;20786;-59
2022/09/29 07:57:57;;;;;;;0.30;0.20;;;22.50;48.10;;;;;;5915524;28;20104;-57
2022/09/29 08:01:00;;;;;;;0.63;0.20;;;22.50;48.10;;;;;;5926984;28;20073;-58
2022/09/29 08:04:02;;;;;;;0.10;0.10;;;22.60;48.30;;;;;;5892803;28;20417;-58
2022/09/29 08:07:04;;;;;;;0.20;0.10;;;22.60;48.10;;;;;;5898392;28;21542;-57
2022/09/29 08:10:07;;;;;;;0.40;0.13;;;22.80;48.20;;;;;;5904989;28;20061;-56
2022/09/29 08:13:18;;;;;;;0.10;0.10;;;22.70;48.10;;;;;;5910678;28;20050;-57
2022/09/29 08:16:20;;;;;;;0.20;0.20;;;22.80;48.00;;;;;;5871447;28;20047;-56
2022/09/29 08:19:22;;;;;;;0.20;0.20;;;22.80;47.80;;;;;;5928557;28;20329;-56
2022/09/29 08:22:23;;;;;;;0.20;0.20;;;22.60;47.50;;;;;;5923708;28;24881;-57
2022/09/29 08:25:26;;;;;;;4.68;0.65;;;22.30;47.20;;;;;;5885818;28;25528;-57
2022/09/29 08:28:29;;;;;;;0.15;0.15;;;22.60;47.20;;;;;;5911470;28;20062;-57
2022/09/29 08:31:33;;;;;;;0.40;0.28;;;22.70;47.10;;;;;;5895625;28;20053;-57
2022/09/29 08:34:35;;;;;;;0.30;0.20;;;22.70;47.10;;;;;;5907250;28;24760;-57
2022/09/29 08:37:37;;;;;;;1.52;0.13;;;22.90;47.10;;;;;;5905227;28;20102;-56
2022/09/29 08:40:40;;;;;;;0.20;0.20;;;23.20;47.20;;;;;;5914889;28;21892;-56
2022/09/29 08:43:42;;;;;;;1.08;0.20;;;23.00;47.10;;;;;;5920798;28;20818;-55
2022/09/29 08:46:46;;;;;;;0.22;0.20;;;23.00;47.00;;;;;;5893811;28;20268;-57
2022/09/29 08:49:52;;;;;;;0.20;0.20;;;23.00;47.00;;;;;;5906975;28;20151;-58
2022/09/29 08:52:58;;;;;;;0.15;0.10;;;23.10;47.00;;;;;;5916712;28;20047;-58
2022/09/29 08:56:03;;;;;;;0.20;0.20;;;22.70;46.70;;;;;;5887960;28;21372;-56
2022/09/29 08:59:07;;;;;;;0.20;0.20;;;23.10;46.40;;;;;;5888621;28;20061;-56
2022/09/29 09:02:38;;;;;;;0.45;0.30;;;23.30;46.90;;;;;;5875736;28;20043;-59
2022/09/29 09:05:57;;;;;;;0.38;0.20;;;23.00;46.60;;;;;;5906159;28;20050;-58
2022/09/29 09:09:24;;;;;;;0.10;0.10;;;23.00;46.50;;;;;;5908576;28;20169;-56
2022/09/29 09:12:47;;;;;;;0.52;0.40;;;23.20;46.50;;;;;;5906561;28;20062;-57
2022/09/29 09:16:05;;;;;;;0.20;0.20;;;23.40;46.60;;;;;;5916293;28;20045;-54
2022/09/29 09:19:26;;;;;;;0.10;0.10;;;23.40;46.50;;;;;;5928432;28;20161;-56
2022/09/29 09:22:38;;;;;;;0.40;0.10;;;23.30;46.50;;;;;;5933513;28;20055;-54
2022/09/29 09:25:48;;;;;;;0.10;0.10;;;23.50;46.60;;;;;;5887665;28;20078;-53
2022/09/29 09:28:54;;;;;;;0.30;0.17;;;23.10;46.20;;;;;;5932664;28;24965;-52
2022/09/29 09:32:00;;;;;;;0.30;0.20;;;23.50;46.50;;;;;;5938383;28;20070;-51
2022/09/29 09:35:16;;;;;;;0.13;0.13;;;23.30;46.20;;;;;;5915631;28;22942;-55
2022/09/29 09:38:29;;;;;;;0.15;0.15;;;23.30;46.10;;;;;;5919465;28;20166;-51
2022/09/29 09:41:35;;;;;;;0.25;0.15;;;23.40;46.10;;;;;;5935261;28;20053;-56
2022/09/29 09:44:42;;;;;;;0.30;0.10;;;23.40;46.10;;;;;;5905878;28;20054;-54
2022/09/29 09:47:50;;;;;;;0.30;0.30;;;23.30;45.90;;;;;;5912158;28;22831;-54
2022/09/29 09:50:51;;;;;;;0.00;0.00;;;23.30;46.30;;;;;;5915632;28;20053;-56
2022/09/29 09:53:58;;;;;;;0.20;0.10;;;23.40;45.70;;;;;;5899426;28;20055;-55
2022/09/29 09:57:17;;;;;;;0.17;0.17;;;23.40;45.60;;;;;;5922228;28;20042;-54
2022/09/29 10:00:23;;;;;;;0.20;0.10;;;23.40;45.50;;;;;;5927106;28;21382;-51
2022/09/29 10:03:27;;;;;;;0.35;0.13;;;23.30;45.60;;;;;;5889613;28;20140;-54
2022/09/29 10:06:29;;;;;;;0.15;0.10;;;23.60;45.60;;;;;;5911379;28;20053;-53
2022/09/29 10:09:30;;;;;;;0.20;0.20;;;23.40;45.50;;;;;;5918876;28;20051;-54
2022/09/29 10:12:32;;;;;;;0.13;0.13;;;23.20;45.30;;;;;;5882700;28;20058;-57
2022/09/29 10:15:37;;;;;;;0.22;0.20;;;23.40;45.50;;;;;;5891507;28;20039;-52
2022/09/29 10:18:41;;;;;;;0.10;0.10;;;23.50;45.10;;;;;;5907841;28;20188;-50
2022/09/29 10:21:43;;;;;;;0.40;0.13;;;23.20;44.90;;;;;;5896084;28;20043;-53
2022/09/29 10:24:45;;;;;;;2.30;0.20;;;23.40;44.80;;;;;;5935298;28;20047;-53
2022/09/29 10:27:49;;;;;;;0.95;0.17;;;23.10;44.60;;;;;;5951966;28;21193;-56
2022/09/29 10:30:53;;;;;;;0.10;0.10;;;23.30;44.70;;;;;;5958012;28;21273;-49
2022/09/29 10:33:58;;;;;;;0.13;0.10;;;23.60;45.00;;;;;;5953662;28;20047;-53
2022/09/29 10:37:01;;;;;;;0.17;0.10;;;23.40;44.80;;;;;;5972466;28;20051;-51
2022/09/29 10:40:11;;;;;;;0.20;0.20;;;23.50;45.00;;;;;;5994535;28;20165;-51
2022/09/29 10:43:23;;;;;;;1.08;0.10;;;23.50;45.10;;;;;;6008814;28;20051;-49
2022/09/29 10:46:39;;;;;;;;;;;23.30;45.40;;;;;;5945914;28;20047;-51
2022/09/29 10:49:41;;;;;;;0.17;0.10;;;23.40;45.30;;;;;;5994790;28;19934;-49
2022/09/29 10:52:47;;;;;;;0.17;0.17;;;23.40;45.50;;;;;;6012167;28;20043;-54
2022/09/29 10:55:52;;;;;;;0.25;0.10;;;23.10;45.50;;;;;;5997080;28;20057;-53
2022/09/29 10:58:57;;;;;;;0.30;0.17;;;23.40;45.90;;;;;;5998938;28;20038;-52
2022/09/29 11:02:21;;;;;;;0.40;0.20;;;23.40;46.10;;;;;;5997585;28;20745;-51
2022/09/29 11:05:26;;;;;;;0.10;0.10;;;23.50;46.50;;;;;;6007710;28;20134;-51
2022/09/29 11:08:28;;;;;;;0.20;0.20;;;23.50;46.60;;;;;;6009390;28;20050;-52
2022/09/29 11:11:31;;;;;;;0.10;0.10;;;23.50;46.70;;;;;;6007877;28;20170;-49
2022/09/29 11:14:41;;;;;;;0.10;0.10;;;23.40;46.80;;;;;;5977097;28;20046;-51
2022/09/29 11:17:48;;;;;;;0.10;0.10;;;23.20;46.30;;;;;;5996018;28;20039;-52
2022/09/29 11:21:08;;;;;;;0.15;0.15;;;23.50;46.60;;;;;;6006383;28;21824;-50
2022/09/29 11:24:21;;;;;;;0.10;0.10;;;23.50;46.60;;;;;;6017593;28;20126;-51
2022/09/29 11:27:36;;;;;;;0.32;0.32;;;24.80;47.00;;;;;;6013211;28;21037;-49
2022/09/29 11:30:49;;;;;;;0.85;0.20;;;23.50;46.20;;;;;;5992650;28;20060;-55
2022/09/29 11:34:05;;;;;;;0.10;0.10;;;23.40;46.00;;;;;;5981721;28;20043;-48
2022/09/29 11:37:21;;;;;;;0.47;0.30;;;23.30;45.90;;;;;;5986602;28;20042;-51
2022/09/29 11:40:29;;;;;;;0.10;0.10;;;23.30;46.00;;;;;;6000905;28;20137;-50
2022/09/29 11:43:44;;;;;;;0.13;0.10;;;23.40;46.10;;;;;;5990135;28;20062;-47
2022/09/29 11:46:57;;;;;;;0.10;0.10;;;23.50;46.30;;;;;;5955766;28;20864;-53
2022/09/29 11:50:15;;;;;;;0.57;0.20;;;23.50;46.40;;;;;;5918363;28;20054;-50
2022/09/29 11:53:32;;;;;;;1.65;0.40;;;23.40;46.40;;;;;;5939561;28;20047;-54
2022/09/29 11:56:40;;;;;;;0.10;0.10;;;23.60;46.30;;;;;;5905068;28;20711;-49
2022/09/29 12:00:01;;;;;;;0.10;0.10;;;23.60;46.10;;;;;;5913082;28;20109;-52
2022/09/29 12:03:27;;;;;;;0.10;0.10;;;23.50;45.70;;;;;;5922055;28;21345;-51
2022/09/29 12:06:50;;;;;;;0.10;0.10;;;23.60;45.50;;;;;;5931361;28;20047;-54
2022/09/29 12:10:13;;;;;;;0.10;0.10;;;23.60;45.40;;;;;;5908102;28;20051;-52
2022/09/29 12:13:28;;;;;;;0.30;0.10;;;23.50;45.10;;;;;;5924658;28;20069;-51
2022/09/29 12:16:35;;;;;;;0.20;0.10;;;23.60;45.10;;;;;;5904850;28;20169;-54
2022/09/29 12:19:39;;;;;;;0.45;0.10;;;23.60;45.00;;;;;;5928347;28;20041;-54
2022/09/29 12:22:44;;;;;;;0.30;0.30;;;23.30;44.70;;;;;;5926118;28;20133;-51
2022/09/29 12:25:55;;;;;;;0.10;0.10;;;23.60;44.90;;;;;;5934356;28;20051;-53
2022/09/29 12:29:02;;;;;;;0.10;0.03;;;23.30;44.50;;;;;;5929165;28;20085;-53
2022/09/29 12:32:13;;;;;;;0.00;0.00;;;23.50;44.70;;;;;;5901171;28;20349;-54
2022/09/29 12:35:34;;;;;;;0.20;0.10;;;23.60;44.80;;;;;;5905801;28;20051;-52
2022/09/29 12:38:41;;;;;;;0.10;0.05;;;23.70;44.80;;;;;;5919946;28;20051;-50
2022/09/29 12:41:51;;;;;;;0.20;0.20;;;23.60;44.90;;;;;;5913193;28;20047;-52
2022/09/29 12:45:00;;;;;;;0.00;0.00;;;23.60;45.50;;;;;;5916637;28;20897;-54
2022/09/29 12:48:17;;;;;;;0.20;0.10;;;23.60;45.00;;;;;;5922229;28;21797;-53
2022/09/29 12:51:27;;;;;;;0.38;0.17;;;23.50;45.10;;;;;;5911986;28;25482;-57
2022/09/29 12:54:34;;;;;;;1.02;0.20;;;23.70;45.40;;;;;;5932945;28;20625;-57
2022/09/29 12:57:40;;;;;;;0.10;0.10;;;23.60;45.50;;;;;;5907213;28;20051;-53
2022/09/29 13:00:44;;;;;;;0.10;0.10;;;23.50;45.60;;;;;;5907102;28;20058;-54
2022/09/29 13:04:12;;;;;;;0.15;0.13;;;23.60;45.80;;;;;;5878566;28;23148;-53
2022/09/29 13:07:40;;;;;;;0.20;0.20;;;23.90;46.20;;;;;;5896766;28;23248;-53
2022/09/29 13:10:56;;;;;;;0.10;0.10;;;23.70;46.20;;;;;;5916419;28;20046;-55
2022/09/29 13:14:25;;;;;;;0.20;0.10;;;23.70;46.20;;;;;;5887610;28;20105;-57
2022/09/29 13:17:41;;;;;;;0.20;0.20;;;23.40;46.20;;;;;;5881376;28;20047;-57
2022/09/29 13:21:01;;;;;;;0.08;0.08;;;23.70;46.50;;;;;;5910543;28;20125;-55
2022/09/29 13:24:21;;;;;;;0.32;0.20;;;23.70;46.50;;;;;;5925225;28;20044;-55
2022/09/29 13:27:29;;;;;;;0.20;0.20;;;23.70;46.60;;;;;;5916813;28;20066;-58
2022/09/29 13:30:35;;;;;;;0.20;0.20;;;23.60;46.60;;;;;;5923304;28;20046;-56
2022/09/29 13:33:38;;;;;;;0.15;0.10;;;23.70;46.70;;;;;;5913243;28;20471;-54
2022/09/29 13:36:44;;;;;;;1.08;0.20;;;23.70;46.80;;;;;;5908470;28;24136;-56
2022/09/29 13:39:54;;;;;;;0.10;0.10;;;23.60;46.80;;;;;;5922669;28;20057;-55
2022/09/29 13:43:04;;;;;;;0.20;0.20;;;23.40;46.80;;;;;;5907344;28;20054;-55
2022/09/29 13:46:35;;;;;;;0.22;0.22;;;23.60;47.00;;;;;;5900501;28;20192;-56
2022/09/29 13:49:37;;;;;;;;;;;23.60;47.10;;;;;;5914522;28;20049;-55
2022/09/29 13:52:39;;;;;;;0.22;0.00;;;23.30;46.90;;;;;;5905095;28;21311;-55
2022/09/29 13:55:50;;;;;;;0.10;0.10;;;23.60;47.20;;;;;;5929259;28;20047;-59
2022/09/29 13:59:01;;;;;;;0.20;0.20;;;23.60;47.30;;;;;;5903360;28;20084;-54
2022/09/29 14:02:18;;;;;;;0.40;0.13;;;23.70;47.40;;;;;;5897788;28;20145;-53
2022/09/29 14:05:38;;;;;;;0.30;0.20;;;23.70;47.50;;;;;;5883398;28;20079;-52
2022/09/29 14:08:45;;;;;;;0.40;0.20;;;23.60;47.40;;;;;;5891863;28;20486;-52
2022/09/29 14:11:49;;;;;;;0.13;0.10;;;23.60;47.40;;;;;;5902664;28;20046;-52
2022/09/29 14:14:55;;;;;;;0.30;0.30;;;23.60;47.50;;;;;;5898163;28;23061;-48
2022/09/29 14:18:03;;;;;;;0.30;0.30;;;23.60;47.50;;;;;;5914244;28;20057;-55
2022/09/29 14:21:09;;;;;;;0.40;0.10;;;23.60;47.70;;;;;;5887255;28;20089;-55
2022/09/29 14:24:41;;;;;;;0.20;0.17;;;23.60;47.80;;;;;;5919106;28;20050;-53
2022/09/29 14:27:48;;;;;;;0.20;0.20;;;23.60;47.90;;;;;;5912382;28;20050;-55
2022/09/29 14:30:51;;;;;;;0.20;0.10;;;23.70;48.00;;;;;;5886765;28;28144;-54
2022/09/29 14:33:55;;;;;;;0.10;0.10;;;23.70;47.90;;;;;;5889028;28;22933;-55
2022/09/29 14:36:57;;;;;;;0.75;0.20;;;23.70;48.00;;;;;;5867254;28;20105;-55
2022/09/29 14:43:15;;;;;;;0.25;0.20;;;23.70;47.80;;;;;;5908475;28;20142;-54
2022/09/29 14:53:52;;;;;;;0.20;0.10;;;23.70;48.00;;;;;;5882049;28;24568;-54
2022/09/29 14:57:03;;;;;;;0.10;0.10;;;23.70;48.00;;;;;;5879024;28;20459;-53
2022/09/29 15:00:11;;;;;;;0.10;0.10;;;23.60;48.30;;;;;;5875243;28;23018;-56
2022/09/29 15:03:26;;;;;;;0.20;0.20;;;23.50;47.90;;;;;;5903520;28;21848;-55
2022/09/29 15:06:30;;;;;;;0.10;0.10;;;23.70;48.10;;;;;;5885600;28;20556;-55
2022/09/29 15:09:36;;;;;;;0.10;0.10;;;23.70;48.00;;;;;;5887347;28;22890;-55
2022/09/29 15:12:37;;;;;;;0.30;0.28;;;23.60;47.80;;;;;;5888358;28;20042;-55
2022/09/29 15:15:42;;;;;;;0.20;0.10;;;23.70;47.70;;;;;;5884125;28;20047;-55
2022/09/29 15:19:04;;;;;;;0.10;0.10;;;23.70;47.70;;;;;;5917639;28;22352;-56
2022/09/29 15:22:25;;;;;;;0.25;0.20;;;23.60;47.60;;;;;;5877109;28;20047;-55
2022/09/29 15:25:29;;;;;;;0.20;0.10;;;23.70;47.60;;;;;;5885543;28;20039;-56
2022/09/29 15:28:35;;;;;;;0.10;0.10;;;23.60;47.50;;;;;;5871805;28;29587;-56
2022/09/29 15:31:37;;;;;;;0.32;0.20;;;23.70;47.50;;;;;;5884016;28;20050;-55
2022/09/29 15:34:38;;;;;;;0.17;0.13;;;23.70;47.50;;;;;;5887249;28;20059;-55
2022/09/29 15:37:53;;;;;;;0.17;0.15;;;23.60;47.40;;;;;;5907490;28;20144;-55
2022/09/29 15:40:59;;;;;;;0.20;0.10;;;23.60;47.40;;;;;;5937748;28;20073;-53
2022/09/29 15:44:10;;;;;;;0.10;0.10;;;23.20;47.50;;;;;;5894414;28;20051;-55
2022/09/29 15:47:21;;;;;;;0.20;0.20;;;23.50;47.30;;;;;;5936788;28;20058;-57
2022/09/29 15:50:25;;;;;;;0.87;0.20;;;23.60;47.30;;;;;;5937670;28;20067;-55
2022/09/29 15:53:27;;;;;;;0.35;0.20;;;23.20;47.20;;;;;;5932539;28;22647;-53
2022/09/29 15:56:29;;;;;;;1.20;0.30;;;23.50;47.40;;;;;;5955233;28;20047;-56
2022/09/29 15:59:47;;;;;;;0.20;0.20;;;23.70;47.40;;;;;;5936037;28;21414;-53
2022/09/29 16:02:54;;;;;;;0.10;0.10;;;23.70;47.30;;;;;;5960734;28;20165;-53
2022/09/29 16:06:03;;;;;;;0.28;0.20;;;23.60;47.20;;;;;;5947786;28;20039;-55
2022/09/29 16:09:14;;;;;;;0.20;0.20;;;23.50;46.90;;;;;;5976826;28;20178;-55
2022/09/29 16:12:19;;;;;;;0.43;0.20;;;23.40;46.80;;;;;;5990263;28;20695;-55
2022/09/29 16:15:26;;;;;;;0.70;0.20;;;23.60;46.80;;;;;;5992207;28;21247;-54
2022/09/29 16:18:32;;;;;;;0.15;0.15;;;23.70;46.80;;;;;;5972711;28;20089;-51
2022/09/29 16:21:35;;;;;;;0.20;0.20;;;23.70;46.80;;;;;;5984771;28;20460;-53
2022/09/29 16:24:51;;;;;;;0.50;0.40;;;23.40;46.50;;;;;;6001845;28;20599;-54
2022/09/29 16:27:56;;;;;;;0.30;0.22;;;23.60;46.50;;;;;;5988352;28;20050;-55
2022/09/29 16:31:02;;;;;;;0.30;0.20;;;23.70;46.70;;;;;;6016523;28;20054;-55
2022/09/29 16:34:19;;;;;;;0.40;0.20;;;23.70;46.50;;;;;;6025409;28;21279;-56